sensor_id;sensor_type;location;lat;lon;timestamp;P1;durP1;ratioP1;P2;durP2;ratioP2
51288;SDS011;37372;52.294;5.152;2022-07-12T00:01:24;4.57;;;2.85;;
51288;SDS011;37372;52.294;5.152;2022-07-12T00:03:50;7.50;;;3.63;;
51288;SDS011;37372;52.294;5.152;2022-07-12T00:06:15;6.20;;;3.40;;
51288;SDS011;37372;52.294;5.152;2022-07-12T00:08:40;4.95;;;3.50;;
51288;SDS011;37372;52.294;5.152;2022-07-12T00:11:06;5.20;;;3.65;;
51288;SDS011;37372;52.294;5.152;2022-07-12T00:13:31;7.05;;;4.07;;
51288;SDS011;37372;52.294;5.152;2022-07-12T00:15:57;6.32;;;3.35;;
51288;SDS011;37372;52.294;5.152;2022-07-12T00:18:23;8.13;;;3.92;;
51288;SDS011;37372;52.294;5.152;2022-07-12T00:20:49;6.32;;;4.15;;
51288;SDS011;37372;52.294;5.152;2022-07-12T00:23:14;5.63;;;3.80;;
51288;SDS011;37372;52.294;5.152;2022-07-12T00:25:40;5.85;;;4.07;;
51288;SDS011;37372;52.294;5.152;2022-07-12T00:28:06;6.07;;;3.40;;
51288;SDS011;37372;52.294;5.152;2022-07-12T00:30:32;7.40;;;4.03;;
51288;SDS011;37372;52.294;5.152;2022-07-12T00:32:57;4.90;;;3.58;;
51288;SDS011;37372;52.294;5.152;2022-07-12T00:35:23;6.93;;;3.97;;
51288;SDS011;37372;52.294;5.152;2022-07-12T00:37:48;3.85;;;3.00;;
51288;SDS011;37372;52.294;5.152;2022-07-12T00:40:15;4.88;;;3.55;;
51288;SDS011;37372;52.294;5.152;2022-07-12T00:42:41;5.78;;;3.40;;
51288;SDS011;37372;52.294;5.152;2022-07-12T00:45:06;5.50;;;3.50;;
51288;SDS011;37372;52.294;5.152;2022-07-12T00:47:50;4.45;;;3.17;;
51288;SDS011;37372;52.294;5.152;2022-07-12T00:50:17;6.80;;;3.80;;
51288;SDS011;37372;52.294;5.152;2022-07-12T00:52:45;4.78;;;3.40;;
51288;SDS011;37372;52.294;5.152;2022-07-12T00:55:13;4.55;;;3.13;;
51288;SDS011;37372;52.294;5.152;2022-07-12T00:57:39;4.47;;;2.95;;
51288;SDS011;37372;52.294;5.152;2022-07-12T01:00:08;3.55;;;2.65;;
51288;SDS011;37372;52.294;5.152;2022-07-12T01:02:34;5.25;;;3.15;;
51288;SDS011;37372;52.294;5.152;2022-07-12T01:05:00;6.70;;;3.30;;
51288;SDS011;37372;52.294;5.152;2022-07-12T01:07:28;5.07;;;2.90;;
51288;SDS011;37372;52.294;5.152;2022-07-12T01:09:54;4.05;;;2.80;;
51288;SDS011;37372;52.294;5.152;2022-07-12T01:12:20;4.10;;;2.90;;
51288;SDS011;37372;52.294;5.152;2022-07-12T01:14:46;5.25;;;3.38;;
51288;SDS011;37372;52.294;5.152;2022-07-12T01:17:13;8.38;;;2.95;;
51288;SDS011;37372;52.294;5.152;2022-07-12T01:19:39;6.75;;;3.05;;
51288;SDS011;37372;52.294;5.152;2022-07-12T01:22:06;4.75;;;2.97;;
51288;SDS011;37372;52.294;5.152;2022-07-12T01:24:34;5.43;;;3.53;;
51288;SDS011;37372;52.294;5.152;2022-07-12T01:27:00;5.80;;;3.72;;
51288;SDS011;37372;52.294;5.152;2022-07-12T01:29:28;5.90;;;4.07;;
51288;SDS011;37372;52.294;5.152;2022-07-12T01:31:53;5.80;;;4.65;;
51288;SDS011;37372;52.294;5.152;2022-07-12T01:34:20;7.53;;;5.18;;
51288;SDS011;37372;52.294;5.152;2022-07-12T01:36:46;6.15;;;4.88;;
51288;SDS011;37372;52.294;5.152;2022-07-12T01:39:12;7.47;;;5.20;;
51288;SDS011;37372;52.294;5.152;2022-07-12T01:41:37;8.88;;;5.20;;
51288;SDS011;37372;52.294;5.152;2022-07-12T01:44:03;6.68;;;5.05;;
51288;SDS011;37372;52.294;5.152;2022-07-12T01:46:28;5.82;;;4.43;;
51288;SDS011;37372;52.294;5.152;2022-07-12T01:48:54;6.55;;;5.05;;
51288;SDS011;37372;52.294;5.152;2022-07-12T01:51:19;6.07;;;5.18;;
51288;SDS011;37372;52.294;5.152;2022-07-12T01:53:45;6.45;;;4.97;;
51288;SDS011;37372;52.294;5.152;2022-07-12T01:56:10;5.47;;;4.47;;
51288;SDS011;37372;52.294;5.152;2022-07-12T01:58:36;6.43;;;5.15;;
51288;SDS011;37372;52.294;5.152;2022-07-12T02:01:02;7.18;;;5.30;;
51288;SDS011;37372;52.294;5.152;2022-07-12T02:03:27;6.55;;;4.35;;
51288;SDS011;37372;52.294;5.152;2022-07-12T02:05:53;7.72;;;5.47;;
51288;SDS011;37372;52.294;5.152;2022-07-12T02:08:18;7.55;;;4.72;;
51288;SDS011;37372;52.294;5.152;2022-07-12T02:10:43;7.50;;;4.97;;
51288;SDS011;37372;52.294;5.152;2022-07-12T02:13:09;5.97;;;4.65;;
51288;SDS011;37372;52.294;5.152;2022-07-12T02:15:35;6.25;;;4.32;;
51288;SDS011;37372;52.294;5.152;2022-07-12T02:18:01;6.93;;;4.63;;
51288;SDS011;37372;52.294;5.152;2022-07-12T02:20:26;8.43;;;5.20;;
51288;SDS011;37372;52.294;5.152;2022-07-12T02:22:52;7.15;;;4.97;;
51288;SDS011;37372;52.294;5.152;2022-07-12T02:25:17;6.13;;;5.25;;
51288;SDS011;37372;52.294;5.152;2022-07-12T02:27:43;5.63;;;4.82;;
51288;SDS011;37372;52.294;5.152;2022-07-12T02:30:09;5.97;;;4.72;;
51288;SDS011;37372;52.294;5.152;2022-07-12T02:32:36;7.07;;;4.63;;
51288;SDS011;37372;52.294;5.152;2022-07-12T02:35:02;6.55;;;4.38;;
51288;SDS011;37372;52.294;5.152;2022-07-12T02:37:28;6.22;;;4.95;;
51288;SDS011;37372;52.294;5.152;2022-07-12T02:39:54;7.15;;;5.20;;
51288;SDS011;37372;52.294;5.152;2022-07-12T02:42:39;5.97;;;4.45;;
51288;SDS011;37372;52.294;5.152;2022-07-12T02:45:05;9.10;;;5.05;;
51288;SDS011;37372;52.294;5.152;2022-07-12T02:47:30;8.82;;;5.57;;
51288;SDS011;37372;52.294;5.152;2022-07-12T02:49:57;8.35;;;5.22;;
51288;SDS011;37372;52.294;5.152;2022-07-12T02:52:23;8.10;;;5.57;;
51288;SDS011;37372;52.294;5.152;2022-07-12T02:54:49;7.28;;;4.85;;
51288;SDS011;37372;52.294;5.152;2022-07-12T02:57:14;6.72;;;5.70;;
51288;SDS011;37372;52.294;5.152;2022-07-12T02:59:40;7.80;;;6.13;;
51288;SDS011;37372;52.294;5.152;2022-07-12T03:02:05;7.95;;;6.20;;
51288;SDS011;37372;52.294;5.152;2022-07-12T03:04:31;7.38;;;6.22;;
51288;SDS011;37372;52.294;5.152;2022-07-12T03:06:56;7.72;;;6.22;;
51288;SDS011;37372;52.294;5.152;2022-07-12T03:09:21;6.65;;;5.75;;
51288;SDS011;37372;52.294;5.152;2022-07-12T03:11:47;6.97;;;5.47;;
51288;SDS011;37372;52.294;5.152;2022-07-12T03:14:12;9.63;;;6.30;;
51288;SDS011;37372;52.294;5.152;2022-07-12T03:16:38;6.70;;;5.30;;
51288;SDS011;37372;52.294;5.152;2022-07-12T03:19:04;6.57;;;5.68;;
51288;SDS011;37372;52.294;5.152;2022-07-12T03:21:29;7.18;;;5.40;;
51288;SDS011;37372;52.294;5.152;2022-07-12T03:23:55;9.70;;;5.72;;
51288;SDS011;37372;52.294;5.152;2022-07-12T03:26:20;7.25;;;5.18;;
51288;SDS011;37372;52.294;5.152;2022-07-12T03:28:46;7.43;;;5.25;;
51288;SDS011;37372;52.294;5.152;2022-07-12T03:31:12;7.00;;;5.50;;
51288;SDS011;37372;52.294;5.152;2022-07-12T03:33:37;8.98;;;4.68;;
51288;SDS011;37372;52.294;5.152;2022-07-12T03:36:02;5.97;;;4.70;;
51288;SDS011;37372;52.294;5.152;2022-07-12T03:38:29;5.70;;;4.75;;
51288;SDS011;37372;52.294;5.152;2022-07-12T03:40:55;6.00;;;4.35;;
51288;SDS011;37372;52.294;5.152;2022-07-12T03:43:20;5.85;;;4.50;;
51288;SDS011;37372;52.294;5.152;2022-07-12T03:45:46;7.25;;;4.63;;
51288;SDS011;37372;52.294;5.152;2022-07-12T03:48:11;7.45;;;5.15;;
51288;SDS011;37372;52.294;5.152;2022-07-12T03:50:36;8.07;;;5.97;;
51288;SDS011;37372;52.294;5.152;2022-07-12T03:53:02;6.80;;;5.60;;
51288;SDS011;37372;52.294;5.152;2022-07-12T03:55:27;6.50;;;5.50;;
51288;SDS011;37372;52.294;5.152;2022-07-12T03:57:52;7.82;;;6.32;;
51288;SDS011;37372;52.294;5.152;2022-07-12T04:00:17;7.90;;;6.15;;
51288;SDS011;37372;52.294;5.152;2022-07-12T04:02:43;7.57;;;5.90;;
51288;SDS011;37372;52.294;5.152;2022-07-12T04:05:09;6.88;;;5.53;;
51288;SDS011;37372;52.294;5.152;2022-07-12T04:07:35;7.70;;;5.78;;
51288;SDS011;37372;52.294;5.152;2022-07-12T04:10:02;6.63;;;5.18;;
51288;SDS011;37372;52.294;5.152;2022-07-12T04:12:28;9.48;;;5.68;;
51288;SDS011;37372;52.294;5.152;2022-07-12T04:14:54;7.07;;;6.35;;
51288;SDS011;37372;52.294;5.152;2022-07-12T04:17:19;10.70;;;6.47;;
51288;SDS011;37372;52.294;5.152;2022-07-12T04:19:44;8.98;;;6.72;;
51288;SDS011;37372;52.294;5.152;2022-07-12T04:22:10;5.05;;;4.47;;
51288;SDS011;37372;52.294;5.152;2022-07-12T04:24:35;5.00;;;3.90;;
51288;SDS011;37372;52.294;5.152;2022-07-12T04:27:00;4.97;;;3.28;;
51288;SDS011;37372;52.294;5.152;2022-07-12T04:29:26;3.72;;;2.92;;
51288;SDS011;37372;52.294;5.152;2022-07-12T04:31:51;12.57;;;3.60;;
51288;SDS011;37372;52.294;5.152;2022-07-12T04:34:16;14.20;;;3.58;;
51288;SDS011;37372;52.294;5.152;2022-07-12T04:36:45;9.50;;;3.72;;
51288;SDS011;37372;52.294;5.152;2022-07-12T04:39:11;12.18;;;5.90;;
51288;SDS011;37372;52.294;5.152;2022-07-12T04:41:37;8.90;;;5.80;;
51288;SDS011;37372;52.294;5.152;2022-07-12T04:44:05;6.78;;;4.75;;
51288;SDS011;37372;52.294;5.152;2022-07-12T04:46:32;6.95;;;5.03;;
51288;SDS011;37372;52.294;5.152;2022-07-12T04:48:57;6.72;;;5.40;;
51288;SDS011;37372;52.294;5.152;2022-07-12T04:51:23;8.73;;;5.50;;
51288;SDS011;37372;52.294;5.152;2022-07-12T04:53:48;7.70;;;6.15;;
51288;SDS011;37372;52.294;5.152;2022-07-12T04:56:14;8.18;;;6.72;;
51288;SDS011;37372;52.294;5.152;2022-07-12T04:58:39;9.80;;;6.43;;
51288;SDS011;37372;52.294;5.152;2022-07-12T05:01:05;7.75;;;6.60;;
51288;SDS011;37372;52.294;5.152;2022-07-12T05:03:30;7.47;;;6.03;;
51288;SDS011;37372;52.294;5.152;2022-07-12T05:05:55;7.82;;;6.50;;
51288;SDS011;37372;52.294;5.152;2022-07-12T05:08:21;8.95;;;6.97;;
51288;SDS011;37372;52.294;5.152;2022-07-12T05:10:47;8.82;;;6.65;;
51288;SDS011;37372;52.294;5.152;2022-07-12T05:13:13;7.00;;;6.30;;
51288;SDS011;37372;52.294;5.152;2022-07-12T05:15:38;7.38;;;6.00;;
51288;SDS011;37372;52.294;5.152;2022-07-12T05:18:03;9.27;;;6.47;;
51288;SDS011;37372;52.294;5.152;2022-07-12T05:20:29;9.05;;;6.93;;
51288;SDS011;37372;52.294;5.152;2022-07-12T05:22:55;8.93;;;7.00;;
51288;SDS011;37372;52.294;5.152;2022-07-12T05:25:20;8.55;;;6.40;;
51288;SDS011;37372;52.294;5.152;2022-07-12T05:27:45;7.25;;;5.80;;
51288;SDS011;37372;52.294;5.152;2022-07-12T05:30:11;8.07;;;7.18;;
51288;SDS011;37372;52.294;5.152;2022-07-12T05:32:36;7.18;;;6.05;;
51288;SDS011;37372;52.294;5.152;2022-07-12T05:35:01;7.28;;;5.85;;
51288;SDS011;37372;52.294;5.152;2022-07-12T05:37:27;8.63;;;5.38;;
51288;SDS011;37372;52.294;5.152;2022-07-12T05:39:52;7.90;;;6.53;;
51288;SDS011;37372;52.294;5.152;2022-07-12T05:42:18;7.50;;;6.20;;
51288;SDS011;37372;52.294;5.152;2022-07-12T05:44:44;7.03;;;4.95;;
51288;SDS011;37372;52.294;5.152;2022-07-12T05:47:09;8.45;;;6.07;;
51288;SDS011;37372;52.294;5.152;2022-07-12T05:49:34;8.23;;;5.25;;
51288;SDS011;37372;52.294;5.152;2022-07-12T05:52:00;6.63;;;4.88;;
51288;SDS011;37372;52.294;5.152;2022-07-12T05:54:44;8.65;;;4.35;;
51288;SDS011;37372;52.294;5.152;2022-07-12T05:57:09;5.85;;;4.10;;
51288;SDS011;37372;52.294;5.152;2022-07-12T05:59:36;6.53;;;4.03;;
51288;SDS011;37372;52.294;5.152;2022-07-12T06:02:01;6.72;;;5.05;;
51288;SDS011;37372;52.294;5.152;2022-07-12T06:04:27;7.15;;;4.70;;
51288;SDS011;37372;52.294;5.152;2022-07-12T06:06:53;7.90;;;5.18;;
51288;SDS011;37372;52.294;5.152;2022-07-12T06:09:18;6.35;;;5.03;;
51288;SDS011;37372;52.294;5.152;2022-07-12T06:11:43;5.10;;;4.20;;
51288;SDS011;37372;52.294;5.152;2022-07-12T06:14:09;8.60;;;6.13;;
51288;SDS011;37372;52.294;5.152;2022-07-12T06:16:34;5.97;;;4.82;;
51288;SDS011;37372;52.294;5.152;2022-07-12T06:18:59;6.38;;;4.90;;
51288;SDS011;37372;52.294;5.152;2022-07-12T06:21:25;12.07;;;5.68;;
51288;SDS011;37372;52.294;5.152;2022-07-12T06:23:50;7.65;;;4.80;;
51288;SDS011;37372;52.294;5.152;2022-07-12T06:26:15;7.13;;;4.70;;
51288;SDS011;37372;52.294;5.152;2022-07-12T06:28:41;6.22;;;5.13;;
51288;SDS011;37372;52.294;5.152;2022-07-12T06:31:06;5.00;;;4.50;;
51288;SDS011;37372;52.294;5.152;2022-07-12T06:33:31;5.70;;;4.68;;
51288;SDS011;37372;52.294;5.152;2022-07-12T06:35:57;7.50;;;5.07;;
51288;SDS011;37372;52.294;5.152;2022-07-12T06:38:22;5.82;;;4.35;;
51288;SDS011;37372;52.294;5.152;2022-07-12T06:40:47;11.98;;;4.95;;
51288;SDS011;37372;52.294;5.152;2022-07-12T06:43:13;4.22;;;3.15;;
51288;SDS011;37372;52.294;5.152;2022-07-12T06:45:38;5.38;;;4.38;;
51288;SDS011;37372;52.294;5.152;2022-07-12T06:48:04;4.97;;;3.53;;
51288;SDS011;37372;52.294;5.152;2022-07-12T06:50:30;3.63;;;2.95;;
51288;SDS011;37372;52.294;5.152;2022-07-12T06:52:56;4.20;;;2.92;;
51288;SDS011;37372;52.294;5.152;2022-07-12T06:55:21;5.57;;;3.17;;
51288;SDS011;37372;52.294;5.152;2022-07-12T06:57:47;11.35;;;4.30;;
51288;SDS011;37372;52.294;5.152;2022-07-12T07:00:12;7.60;;;4.32;;
51288;SDS011;37372;52.294;5.152;2022-07-12T07:02:38;5.90;;;4.25;;
51288;SDS011;37372;52.294;5.152;2022-07-12T07:05:07;6.80;;;5.28;;
51288;SDS011;37372;52.294;5.152;2022-07-12T07:07:32;4.72;;;3.20;;
51288;SDS011;37372;52.294;5.152;2022-07-12T07:09:58;5.28;;;4.45;;
51288;SDS011;37372;52.294;5.152;2022-07-12T07:12:23;9.07;;;5.63;;
51288;SDS011;37372;52.294;5.152;2022-07-12T07:14:49;6.90;;;4.55;;
51288;SDS011;37372;52.294;5.152;2022-07-12T07:17:15;8.68;;;6.32;;
51288;SDS011;37372;52.294;5.152;2022-07-12T07:19:42;6.95;;;5.78;;
51288;SDS011;37372;52.294;5.152;2022-07-12T07:22:07;10.80;;;6.47;;
51288;SDS011;37372;52.294;5.152;2022-07-12T07:24:32;7.40;;;5.63;;
51288;SDS011;37372;52.294;5.152;2022-07-12T07:26:58;5.10;;;3.92;;
51288;SDS011;37372;52.294;5.152;2022-07-12T07:29:23;6.80;;;4.85;;
51288;SDS011;37372;52.294;5.152;2022-07-12T07:32:08;5.63;;;3.97;;
51288;SDS011;37372;52.294;5.152;2022-07-12T07:34:33;5.20;;;3.60;;
51288;SDS011;37372;52.294;5.152;2022-07-12T07:36:58;5.47;;;3.30;;
51288;SDS011;37372;52.294;5.152;2022-07-12T07:39:24;6.32;;;4.32;;
51288;SDS011;37372;52.294;5.152;2022-07-12T07:41:49;7.93;;;5.10;;
51288;SDS011;37372;52.294;5.152;2022-07-12T07:44:15;7.30;;;4.45;;
51288;SDS011;37372;52.294;5.152;2022-07-12T07:46:40;8.90;;;4.85;;
51288;SDS011;37372;52.294;5.152;2022-07-12T07:49:05;7.53;;;3.83;;
51288;SDS011;37372;52.294;5.152;2022-07-12T07:51:31;8.02;;;4.63;;
51288;SDS011;37372;52.294;5.152;2022-07-12T07:53:56;6.50;;;3.28;;
51288;SDS011;37372;52.294;5.152;2022-07-12T07:56:21;6.50;;;4.93;;
51288;SDS011;37372;52.294;5.152;2022-07-12T07:58:47;7.40;;;4.30;;
51288;SDS011;37372;52.294;5.152;2022-07-12T08:01:12;7.85;;;5.03;;
51288;SDS011;37372;52.294;5.152;2022-07-12T08:03:37;7.25;;;4.53;;
51288;SDS011;37372;52.294;5.152;2022-07-12T08:06:04;5.50;;;3.42;;
51288;SDS011;37372;52.294;5.152;2022-07-12T08:08:29;4.07;;;3.20;;
51288;SDS011;37372;52.294;5.152;2022-07-12T08:10:55;7.25;;;4.20;;
51288;SDS011;37372;52.294;5.152;2022-07-12T08:13:21;7.28;;;4.70;;
51288;SDS011;37372;52.294;5.152;2022-07-12T08:15:46;4.55;;;3.63;;
51288;SDS011;37372;52.294;5.152;2022-07-12T08:18:12;5.10;;;4.20;;
51288;SDS011;37372;52.294;5.152;2022-07-12T08:20:38;6.78;;;5.20;;
51288;SDS011;37372;52.294;5.152;2022-07-12T08:23:03;7.65;;;5.22;;
51288;SDS011;37372;52.294;5.152;2022-07-12T08:25:29;6.05;;;4.72;;
51288;SDS011;37372;52.294;5.152;2022-07-12T08:27:54;9.40;;;5.53;;
51288;SDS011;37372;52.294;5.152;2022-07-12T08:30:19;7.35;;;5.43;;
51288;SDS011;37372;52.294;5.152;2022-07-12T08:32:45;7.60;;;4.78;;
51288;SDS011;37372;52.294;5.152;2022-07-12T08:35:11;7.40;;;5.45;;
51288;SDS011;37372;52.294;5.152;2022-07-12T08:37:37;7.47;;;5.10;;
51288;SDS011;37372;52.294;5.152;2022-07-12T08:40:02;8.88;;;4.25;;
51288;SDS011;37372;52.294;5.152;2022-07-12T08:42:28;6.82;;;4.22;;
51288;SDS011;37372;52.294;5.152;2022-07-12T08:44:54;11.07;;;5.40;;
51288;SDS011;37372;52.294;5.152;2022-07-12T08:47:20;7.68;;;5.00;;
51288;SDS011;37372;52.294;5.152;2022-07-12T08:52:44;7.97;;;2.95;;
51288;SDS011;37372;52.294;5.152;2022-07-12T08:55:27;5.20;;;3.50;;
51288;SDS011;37372;52.294;5.152;2022-07-12T08:57:53;8.50;;;2.90;;
51288;SDS011;37372;52.294;5.152;2022-07-12T09:00:20;8.50;;;2.33;;
51288;SDS011;37372;52.294;5.152;2022-07-12T09:02:47;4.40;;;2.28;;
51288;SDS011;37372;52.294;5.152;2022-07-12T09:05:32;2.65;;;1.92;;
51288;SDS011;37372;52.294;5.152;2022-07-12T09:08:05;3.55;;;1.98;;
51288;SDS011;37372;52.294;5.152;2022-07-12T09:10:36;3.50;;;2.15;;
51288;SDS011;37372;52.294;5.152;2022-07-12T09:13:17;3.95;;;1.90;;
51288;SDS011;37372;52.294;5.152;2022-07-12T09:15:43;4.05;;;1.92;;
51288;SDS011;37372;52.294;5.152;2022-07-12T09:18:08;4.97;;;1.95;;
51288;SDS011;37372;52.294;5.152;2022-07-12T09:20:41;5.18;;;1.73;;
51288;SDS011;37372;52.294;5.152;2022-07-12T09:23:14;2.63;;;1.83;;
51288;SDS011;37372;52.294;5.152;2022-07-12T09:25:43;3.13;;;2.35;;
51288;SDS011;37372;52.294;5.152;2022-07-12T09:28:09;3.10;;;1.98;;
51288;SDS011;37372;52.294;5.152;2022-07-12T09:30:35;3.47;;;1.90;;
51288;SDS011;37372;52.294;5.152;2022-07-12T09:33:03;3.20;;;1.15;;
51288;SDS011;37372;52.294;5.152;2022-07-12T09:38:38;2.92;;;1.38;;
51288;SDS011;37372;52.294;5.152;2022-07-12T09:41:05;4.03;;;2.10;;
51288;SDS011;37372;52.294;5.152;2022-07-12T09:43:32;4.43;;;2.40;;
51288;SDS011;37372;52.294;5.152;2022-07-12T09:45:58;2.97;;;2.00;;
51288;SDS011;37372;52.294;5.152;2022-07-12T09:48:23;6.57;;;2.08;;
51288;SDS011;37372;52.294;5.152;2022-07-12T09:50:51;5.63;;;2.15;;
51288;SDS011;37372;52.294;5.152;2022-07-12T09:55:52;3.50;;;2.28;;
51288;SDS011;37372;52.294;5.152;2022-07-12T09:58:21;7.50;;;2.50;;
51288;SDS011;37372;52.294;5.152;2022-07-12T10:00:49;3.40;;;2.50;;
51288;SDS011;37372;52.294;5.152;2022-07-12T10:03:16;6.47;;;2.65;;
51288;SDS011;37372;52.294;5.152;2022-07-12T10:05:49;5.90;;;3.83;;
51288;SDS011;37372;52.294;5.152;2022-07-12T10:08:15;4.95;;;3.67;;
51288;SDS011;37372;52.294;5.152;2022-07-12T10:10:42;4.90;;;3.22;;
51288;SDS011;37372;52.294;5.152;2022-07-12T10:13:08;7.63;;;2.55;;
51288;SDS011;37372;52.294;5.152;2022-07-12T10:15:33;5.07;;;3.58;;
51288;SDS011;37372;52.294;5.152;2022-07-12T10:17:59;4.50;;;2.95;;
51288;SDS011;37372;52.294;5.152;2022-07-12T10:20:26;4.82;;;3.15;;
51288;SDS011;37372;52.294;5.152;2022-07-12T10:22:56;3.65;;;2.60;;
51288;SDS011;37372;52.294;5.152;2022-07-12T10:25:43;4.88;;;2.85;;
51288;SDS011;37372;52.294;5.152;2022-07-12T10:28:08;4.80;;;3.20;;
51288;SDS011;37372;52.294;5.152;2022-07-12T10:30:47;4.28;;;2.95;;
51288;SDS011;37372;52.294;5.152;2022-07-12T10:33:14;7.72;;;3.70;;
51288;SDS011;37372;52.294;5.152;2022-07-12T10:35:57;3.25;;;2.28;;
51288;SDS011;37372;52.294;5.152;2022-07-12T10:38:27;3.60;;;2.72;;
51288;SDS011;37372;52.294;5.152;2022-07-12T10:40:53;7.47;;;3.95;;
51288;SDS011;37372;52.294;5.152;2022-07-12T10:43:26;4.70;;;3.38;;
51288;SDS011;37372;52.294;5.152;2022-07-12T10:46:22;5.13;;;3.10;;
51288;SDS011;37372;52.294;5.152;2022-07-12T10:48:49;4.20;;;2.55;;
51288;SDS011;37372;52.294;5.152;2022-07-12T10:51:16;5.85;;;2.50;;
51288;SDS011;37372;52.294;5.152;2022-07-12T10:53:45;5.55;;;3.97;;
51288;SDS011;37372;52.294;5.152;2022-07-12T10:56:23;6.07;;;3.90;;
51288;SDS011;37372;52.294;5.152;2022-07-12T10:58:51;4.97;;;2.95;;
51288;SDS011;37372;52.294;5.152;2022-07-12T11:01:23;5.25;;;3.75;;
51288;SDS011;37372;52.294;5.152;2022-07-12T11:03:53;4.72;;;3.40;;
51288;SDS011;37372;52.294;5.152;2022-07-12T11:06:33;4.65;;;2.72;;
51288;SDS011;37372;52.294;5.152;2022-07-12T11:09:03;6.55;;;3.92;;
51288;SDS011;37372;52.294;5.152;2022-07-12T11:11:40;5.63;;;4.05;;
51288;SDS011;37372;52.294;5.152;2022-07-12T11:14:08;5.45;;;4.13;;
51288;SDS011;37372;52.294;5.152;2022-07-12T11:16:34;7.18;;;4.25;;
51288;SDS011;37372;52.294;5.152;2022-07-12T11:19:08;6.03;;;3.17;;
51288;SDS011;37372;52.294;5.152;2022-07-12T11:21:34;5.72;;;3.35;;
51288;SDS011;37372;52.294;5.152;2022-07-12T11:23:59;5.18;;;3.42;;
51288;SDS011;37372;52.294;5.152;2022-07-12T11:26:26;4.72;;;3.20;;
51288;SDS011;37372;52.294;5.152;2022-07-12T11:28:55;5.28;;;3.75;;
51288;SDS011;37372;52.294;5.152;2022-07-12T11:31:22;5.13;;;2.55;;
51288;SDS011;37372;52.294;5.152;2022-07-12T11:33:50;5.72;;;3.90;;
51288;SDS011;37372;52.294;5.152;2022-07-12T11:36:18;4.55;;;2.70;;
51288;SDS011;37372;52.294;5.152;2022-07-12T11:38:45;3.95;;;2.70;;
51288;SDS011;37372;52.294;5.152;2022-07-12T11:41:12;6.38;;;3.05;;
51288;SDS011;37372;52.294;5.152;2022-07-12T11:43:38;3.47;;;2.28;;
51288;SDS011;37372;52.294;5.152;2022-07-12T11:46:05;4.55;;;2.47;;
51288;SDS011;37372;52.294;5.152;2022-07-12T11:48:31;3.05;;;1.70;;
51288;SDS011;37372;52.294;5.152;2022-07-12T11:51:00;5.18;;;2.38;;
51288;SDS011;37372;52.294;5.152;2022-07-12T11:53:31;4.30;;;2.55;;
51288;SDS011;37372;52.294;5.152;2022-07-12T11:55:58;3.45;;;2.15;;
51288;SDS011;37372;52.294;5.152;2022-07-12T11:58:25;3.28;;;2.00;;
51288;SDS011;37372;52.294;5.152;2022-07-12T12:00:52;3.75;;;2.58;;
51288;SDS011;37372;52.294;5.152;2022-07-12T12:03:18;4.28;;;2.58;;
51288;SDS011;37372;52.294;5.152;2022-07-12T12:05:48;2.88;;;2.00;;
51288;SDS011;37372;52.294;5.152;2022-07-12T12:08:15;5.25;;;2.88;;
51288;SDS011;37372;52.294;5.152;2022-07-12T12:10:41;5.25;;;3.17;;
51288;SDS011;37372;52.294;5.152;2022-07-12T12:13:14;4.15;;;2.50;;
51288;SDS011;37372;52.294;5.152;2022-07-12T12:15:41;4.75;;;3.75;;
51288;SDS011;37372;52.294;5.152;2022-07-12T12:18:13;6.70;;;3.47;;
51288;SDS011;37372;52.294;5.152;2022-07-12T12:20:39;4.05;;;2.70;;
51288;SDS011;37372;52.294;5.152;2022-07-12T12:23:16;3.80;;;2.05;;
51288;SDS011;37372;52.294;5.152;2022-07-12T12:25:43;5.28;;;2.10;;
51288;SDS011;37372;52.294;5.152;2022-07-12T12:28:09;6.03;;;2.58;;
51288;SDS011;37372;52.294;5.152;2022-07-12T12:30:38;3.83;;;2.50;;
51288;SDS011;37372;52.294;5.152;2022-07-12T12:38:42;9.88;;;2.25;;
51288;SDS011;37372;52.294;5.152;2022-07-12T12:41:09;3.17;;;1.58;;
51288;SDS011;37372;52.294;5.152;2022-07-12T12:43:35;7.18;;;2.42;;
51288;SDS011;37372;52.294;5.152;2022-07-12T12:46:00;4.10;;;2.20;;
51288;SDS011;37372;52.294;5.152;2022-07-12T12:48:27;3.25;;;1.83;;
51288;SDS011;37372;52.294;5.152;2022-07-12T12:50:54;2.33;;;1.77;;
51288;SDS011;37372;52.294;5.152;2022-07-12T12:53:27;2.85;;;1.77;;
51288;SDS011;37372;52.294;5.152;2022-07-12T12:55:53;5.10;;;1.92;;
51288;SDS011;37372;52.294;5.152;2022-07-12T12:58:20;3.15;;;1.42;;
51288;SDS011;37372;52.294;5.152;2022-07-12T13:00:49;2.63;;;1.77;;
51288;SDS011;37372;52.294;5.152;2022-07-12T13:03:16;1.67;;;1.10;;
51288;SDS011;37372;52.294;5.152;2022-07-12T13:05:43;3.13;;;1.20;;
51288;SDS011;37372;52.294;5.152;2022-07-12T13:08:09;2.83;;;1.35;;
51288;SDS011;37372;52.294;5.152;2022-07-12T13:10:36;3.22;;;1.45;;
51288;SDS011;37372;52.294;5.152;2022-07-12T13:13:03;1.95;;;1.25;;
51288;SDS011;37372;52.294;5.152;2022-07-12T13:15:29;1.88;;;1.20;;
51288;SDS011;37372;52.294;5.152;2022-07-12T13:17:55;3.63;;;2.15;;
51288;SDS011;37372;52.294;5.152;2022-07-12T13:20:21;5.03;;;2.30;;
51288;SDS011;37372;52.294;5.152;2022-07-12T13:22:47;5.38;;;2.95;;
51288;SDS011;37372;52.294;5.152;2022-07-12T13:25:13;2.45;;;1.90;;
51288;SDS011;37372;52.294;5.152;2022-07-12T13:27:39;2.20;;;1.50;;
51288;SDS011;37372;52.294;5.152;2022-07-12T13:30:06;2.17;;;1.10;;
51288;SDS011;37372;52.294;5.152;2022-07-12T13:32:34;2.28;;;1.42;;
51288;SDS011;37372;52.294;5.152;2022-07-12T13:34:59;5.63;;;1.90;;
51288;SDS011;37372;52.294;5.152;2022-07-12T13:37:26;3.88;;;1.45;;
51288;SDS011;37372;52.294;5.152;2022-07-12T13:39:51;3.22;;;1.30;;
51288;SDS011;37372;52.294;5.152;2022-07-12T13:42:35;3.70;;;1.85;;
51288;SDS011;37372;52.294;5.152;2022-07-12T13:45:05;4.30;;;2.08;;
51288;SDS011;37372;52.294;5.152;2022-07-12T13:47:31;4.80;;;2.05;;
51288;SDS011;37372;52.294;5.152;2022-07-12T13:49:57;3.03;;;2.25;;
51288;SDS011;37372;52.294;5.152;2022-07-12T13:52:22;3.60;;;1.77;;
51288;SDS011;37372;52.294;5.152;2022-07-12T13:54:47;1.90;;;1.30;;
51288;SDS011;37372;52.294;5.152;2022-07-12T13:57:13;3.45;;;1.77;;
51288;SDS011;37372;52.294;5.152;2022-07-12T13:59:38;2.15;;;1.58;;
51288;SDS011;37372;52.294;5.152;2022-07-12T14:02:04;4.43;;;1.52;;
51288;SDS011;37372;52.294;5.152;2022-07-12T14:04:30;4.00;;;1.50;;
51288;SDS011;37372;52.294;5.152;2022-07-12T14:06:56;2.88;;;1.77;;
51288;SDS011;37372;52.294;5.152;2022-07-12T14:09:22;3.13;;;1.40;;
51288;SDS011;37372;52.294;5.152;2022-07-12T14:11:50;2.10;;;1.25;;
51288;SDS011;37372;52.294;5.152;2022-07-12T14:14:15;3.45;;;1.75;;
51288;SDS011;37372;52.294;5.152;2022-07-12T14:16:41;10.80;;;1.60;;
51288;SDS011;37372;52.294;5.152;2022-07-12T14:19:07;1.60;;;1.30;;
51288;SDS011;37372;52.294;5.152;2022-07-12T14:21:32;1.63;;;1.00;;
51288;SDS011;37372;52.294;5.152;2022-07-12T14:23:58;1.40;;;0.98;;
51288;SDS011;37372;52.294;5.152;2022-07-12T14:26:27;2.15;;;1.23;;
51288;SDS011;37372;52.294;5.152;2022-07-12T14:28:53;2.67;;;1.27;;
51288;SDS011;37372;52.294;5.152;2022-07-12T14:31:18;2.58;;;1.58;;
51288;SDS011;37372;52.294;5.152;2022-07-12T14:33:44;1.95;;;1.40;;
51288;SDS011;37372;52.294;5.152;2022-07-12T14:36:09;4.13;;;1.55;;
51288;SDS011;37372;52.294;5.152;2022-07-12T14:38:35;4.82;;;1.10;;
51288;SDS011;37372;52.294;5.152;2022-07-12T14:41:00;2.00;;;1.20;;
51288;SDS011;37372;52.294;5.152;2022-07-12T14:43:25;3.33;;;1.67;;
51288;SDS011;37372;52.294;5.152;2022-07-12T14:45:51;3.90;;;1.35;;
51288;SDS011;37372;52.294;5.152;2022-07-12T14:48:16;5.07;;;1.13;;
51288;SDS011;37372;52.294;5.152;2022-07-12T14:50:41;2.92;;;1.20;;
51288;SDS011;37372;52.294;5.152;2022-07-12T14:53:07;2.08;;;1.40;;
51288;SDS011;37372;52.294;5.152;2022-07-12T14:55:32;4.30;;;1.75;;
51288;SDS011;37372;52.294;5.152;2022-07-12T14:57:58;2.28;;;1.30;;
51288;SDS011;37372;52.294;5.152;2022-07-12T15:00:25;3.20;;;1.25;;